createdAt,value
2019-05-10T00:01:07.539Z,11.84
2019-05-10T00:03:54.785Z,11.82
2019-05-10T00:06:42.064Z,11.74
2019-05-10T00:09:10.749Z,11.70
2019-05-10T00:11:49.324Z,11.65
2019-05-10T00:14:23.057Z,11.62
2019-05-10T00:16:54.201Z,11.59
2019-05-10T00:19:23.575Z,11.58
2019-05-10T00:21:52.954Z,11.55
2019-05-10T00:24:22.390Z,11.52
2019-05-10T00:26:51.838Z,11.51
2019-05-10T00:29:21.228Z,11.51
2019-05-10T00:31:50.636Z,11.50
2019-05-10T00:34:20.045Z,11.49
2019-05-10T00:36:49.412Z,11.44
2019-05-10T00:39:19.574Z,11.41
2019-05-10T00:41:48.988Z,11.40
2019-05-10T00:44:18.289Z,11.40
2019-05-10T00:46:47.821Z,11.42
2019-05-10T00:49:17.318Z,11.41
2019-05-10T00:51:46.704Z,11.39
2019-05-10T00:54:16.083Z,11.40
2019-05-10T00:56:45.411Z,11.37
2019-05-10T00:59:14.766Z,11.38
2019-05-10T01:01:44.091Z,11.39
2019-05-10T01:04:13.424Z,11.39
2019-05-10T01:06:42.799Z,11.36
2019-05-10T01:09:13.692Z,11.36
2019-05-10T01:11:43.051Z,11.32
2019-05-10T01:14:12.432Z,11.30
2019-05-10T01:16:41.820Z,11.24
2019-05-10T01:19:11.207Z,11.26
2019-05-10T01:21:40.508Z,11.25
2019-05-10T01:24:09.922Z,11.29
2019-05-10T01:26:39.363Z,11.28
2019-05-10T01:29:08.729Z,11.29
2019-05-10T01:31:38.219Z,11.30
2019-05-10T01:34:07.527Z,11.30
2019-05-10T01:36:37.034Z,11.32
2019-05-10T01:39:06.959Z,11.32
2019-05-10T01:41:36.332Z,11.31
2019-05-10T01:44:05.749Z,11.32
2019-05-10T01:46:35.152Z,11.29
2019-05-10T01:49:04.540Z,11.29
2019-05-10T01:51:33.845Z,11.31
2019-05-10T01:54:03.145Z,11.31
2019-05-10T01:56:32.545Z,11.22
2019-05-10T01:59:02.002Z,11.24
2019-05-10T02:01:31.474Z,11.29
2019-05-10T02:04:00.976Z,11.26
2019-05-10T02:06:30.365Z,11.27
2019-05-10T02:08:59.751Z,11.21
2019-05-10T02:11:29.126Z,11.19
2019-05-10T02:13:58.538Z,11.18
2019-05-10T02:16:27.920Z,11.17
2019-05-10T02:18:57.470Z,11.20
2019-05-10T02:21:27.104Z,11.21
2019-05-10T02:23:56.469Z,11.16
2019-05-10T02:26:25.774Z,11.14
2019-05-10T02:28:55.027Z,11.12
2019-05-10T02:31:24.329Z,11.13
2019-05-10T02:33:53.698Z,11.15
2019-05-10T02:36:23.102Z,11.13
2019-05-10T02:38:52.538Z,11.11
2019-05-10T02:41:21.906Z,11.09
2019-05-10T02:43:51.332Z,11.05
2019-05-10T02:46:20.781Z,11.01
2019-05-10T02:48:50.146Z,11.00
2019-05-10T02:51:19.600Z,10.98
2019-05-10T02:53:49.197Z,10.92
2019-05-10T02:56:30.661Z,10.93
2019-05-10T02:58:50.062Z,10.91
2019-05-10T03:01:22.320Z,10.87
2019-05-10T03:03:53.433Z,10.89
2019-05-10T03:06:24.980Z,10.87
2019-05-10T03:08:54.337Z,10.87
2019-05-10T03:11:25.254Z,10.85
2019-05-10T03:13:54.657Z,10.85
2019-05-10T03:16:24.120Z,10.82
2019-05-10T03:18:53.731Z,10.79
2019-05-10T03:21:24.543Z,10.84
2019-05-10T03:23:54.079Z,10.82
2019-05-10T03:26:23.378Z,10.81
2019-05-10T03:28:52.840Z,10.81
2019-05-10T03:31:22.320Z,10.79
2019-05-10T03:33:56.276Z,10.77
2019-05-10T03:36:22.789Z,10.79
2019-05-10T03:38:52.362Z,10.77
2019-05-10T03:41:21.813Z,10.78
2019-05-10T03:43:51.220Z,10.76
2019-05-10T03:46:20.596Z,10.75
2019-05-10T03:48:49.873Z,10.69
2019-05-10T03:51:19.403Z,10.67
2019-05-10T03:53:48.844Z,10.69
2019-05-10T03:56:18.243Z,10.68
2019-05-10T03:58:47.633Z,10.70
2019-05-10T04:01:17.005Z,10.71
2019-05-10T04:03:46.421Z,10.73
2019-05-10T04:06:15.781Z,10.75
2019-05-10T04:08:45.267Z,10.76
2019-05-10T04:11:14.686Z,10.79
2019-05-10T04:13:44.083Z,10.79
2019-05-10T04:16:13.492Z,10.81
2019-05-10T04:18:42.832Z,10.81
2019-05-10T04:21:12.061Z,10.79
2019-05-10T04:23:41.498Z,10.83
2019-05-10T04:26:10.903Z,10.87
2019-05-10T04:28:40.129Z,10.89
2019-05-10T04:31:09.428Z,10.93
2019-05-10T04:33:38.685Z,10.94
2019-05-10T04:36:12.295Z,10.92
2019-05-10T04:38:39.143Z,10.96
2019-05-10T04:41:08.485Z,10.95
2019-05-10T04:43:37.788Z,10.96
2019-05-10T04:46:07.080Z,11.00
2019-05-10T04:48:36.336Z,11.00
2019-05-10T04:51:05.698Z,10.96
2019-05-10T04:53:34.929Z,10.94
2019-05-10T04:56:04.240Z,11.02
2019-05-10T04:58:33.606Z,11.07
2019-05-10T05:01:02.971Z,11.00
2019-05-10T05:03:32.226Z,11.04
2019-05-10T05:06:01.612Z,11.11
2019-05-10T05:08:30.851Z,11.10
2019-05-10T05:11:00.246Z,11.03
2019-05-10T05:13:29.621Z,10.99
2019-05-10T05:15:58.900Z,11.02
2019-05-10T05:18:28.489Z,11.09
2019-05-10T05:20:57.858Z,11.18
2019-05-10T05:23:27.161Z,11.16
2019-05-10T05:25:56.565Z,11.10
2019-05-10T05:28:25.938Z,11.25
2019-05-10T05:30:55.233Z,11.47
2019-05-10T05:33:24.641Z,11.56
2019-05-10T05:35:54.084Z,11.88
2019-05-10T05:38:23.435Z,11.95
2019-05-10T05:40:52.832Z,11.99
2019-05-10T05:43:22.108Z,11.85
2019-05-10T05:45:51.449Z,12.01
2019-05-10T05:48:21.380Z,11.91
2019-05-10T05:50:51.836Z,11.89
2019-05-10T05:53:22.520Z,12.03
2019-05-10T05:55:52.518Z,11.89
2019-05-10T05:58:29.129Z,11.94
2019-05-10T06:00:52.891Z,12.22
2019-05-10T06:03:27.490Z,12.53
2019-05-10T06:05:53.265Z,12.65
2019-05-10T06:08:24.848Z,12.85
2019-05-10T06:10:58.187Z,12.94
2019-05-10T06:13:30.413Z,12.98
2019-05-10T06:15:59.625Z,12.99
2019-05-10T06:18:26.734Z,13.07
2019-05-10T06:20:58.469Z,12.84
2019-05-10T06:23:29.317Z,13.03
2019-05-10T06:25:58.926Z,13.30
2019-05-10T06:28:56.275Z,13.15
2019-05-10T06:30:59.214Z,13.31
2019-05-10T06:33:28.798Z,13.60
2019-05-10T06:35:58.233Z,13.49
2019-05-10T06:38:27.609Z,13.79
2019-05-10T06:40:57.027Z,13.97
2019-05-10T06:43:26.377Z,14.16
2019-05-10T06:45:55.883Z,14.40
2019-05-10T06:48:27.463Z,14.51
2019-05-10T06:50:56.437Z,14.69
2019-05-10T06:53:26.621Z,14.86
2019-05-10T06:55:56.027Z,14.76
2019-05-10T06:58:25.422Z,14.87
2019-05-10T07:00:54.743Z,14.96
2019-05-10T07:03:24.514Z,14.89
2019-05-10T07:05:53.946Z,15.03
2019-05-10T07:08:23.362Z,15.03
2019-05-10T07:10:52.886Z,15.20
2019-05-10T07:13:22.341Z,15.22
2019-05-10T07:15:51.757Z,15.59
2019-05-10T07:18:22.680Z,15.87
2019-05-10T07:20:52.449Z,16.00
2019-05-10T07:23:21.897Z,16.22
2019-05-10T07:25:51.369Z,16.04
2019-05-10T07:28:20.923Z,16.27
2019-05-10T07:30:50.386Z,16.19
2019-05-10T07:33:22.713Z,16.38
2019-05-10T07:35:52.189Z,16.40
2019-05-10T07:38:23.534Z,16.41
2019-05-10T07:40:52.718Z,16.73
2019-05-10T07:43:26.657Z,16.59
2019-05-10T07:45:58.709Z,16.50
2019-05-10T07:48:24.574Z,16.77
2019-05-10T07:50:54.072Z,16.93
2019-05-10T07:53:25.240Z,17.20
2019-05-10T07:56:00.094Z,17.85
2019-05-10T07:58:25.772Z,17.86
2019-05-10T08:00:56.182Z,18.06
2019-05-10T08:03:25.733Z,17.99
2019-05-10T08:05:58.904Z,17.34
2019-05-10T08:08:26.154Z,17.35
2019-05-10T08:10:55.681Z,17.54
2019-05-10T08:13:25.362Z,17.40
2019-05-10T08:15:54.568Z,17.39
2019-05-10T08:18:25.455Z,17.75
2019-05-10T08:21:01.815Z,17.88
2019-05-10T08:23:27.994Z,17.73
2019-05-10T08:25:57.501Z,17.68
2019-05-10T08:28:27.979Z,18.03
2019-05-10T08:30:59.099Z,17.87
2019-05-10T08:33:28.656Z,17.83
2019-05-10T08:36:04.963Z,18.10
2019-05-10T08:38:29.097Z,17.97
2019-05-10T08:40:58.553Z,17.79
2019-05-10T08:43:30.758Z,17.92
2019-05-10T08:45:58.902Z,18.12
2019-05-10T08:48:28.206Z,18.31
2019-05-10T08:51:03.121Z,18.33
2019-05-10T08:53:28.614Z,18.66
2019-05-10T08:55:58.880Z,18.56
2019-05-10T08:58:36.955Z,19.42
2019-05-10T09:01:12.166Z,19.35
2019-05-10T09:03:32.234Z,18.65
2019-05-10T09:06:11.113Z,19.06
2019-05-10T09:08:34.878Z,19.58
2019-05-10T09:11:06.935Z,19.60
2019-05-10T09:13:41.000Z,19.51
2019-05-10T09:16:07.554Z,19.17
2019-05-10T09:18:38.147Z,18.96
2019-05-10T09:21:09.173Z,19.01
2019-05-10T09:23:39.088Z,18.74
2019-05-10T09:26:15.277Z,18.86
2019-05-10T09:28:39.488Z,19.01
2019-05-10T09:31:18.694Z,19.32
2019-05-10T09:33:43.384Z,19.69
2019-05-10T09:36:12.465Z,19.78
2019-05-10T09:38:46.397Z,19.98
2019-05-10T09:41:15.474Z,19.69
2019-05-10T09:43:49.179Z,19.82
2019-05-10T09:46:15.896Z,20.25
2019-05-10T09:48:45.220Z,20.44
2019-05-10T09:51:19.116Z,20.31
2019-05-10T09:53:48.553Z,20.70
2019-05-10T09:56:17.412Z,20.28
2019-05-10T09:58:48.396Z,20.23
2019-05-10T10:01:21.610Z,20.10
2019-05-10T10:03:49.107Z,20.70
2019-05-10T10:06:18.479Z,21.08
2019-05-10T10:08:51.264Z,21.12
2019-05-10T10:11:18.903Z,21.07
2019-05-10T10:13:51.984Z,21.10
2019-05-10T10:16:19.338Z,21.43
2019-05-10T10:18:48.607Z,21.64
2019-05-10T10:21:27.185Z,21.07
2019-05-10T10:23:49.475Z,21.73
2019-05-10T10:26:22.374Z,22.28
2019-05-10T10:28:54.950Z,22.14
2019-05-10T10:31:29.607Z,21.28
2019-05-10T10:33:57.991Z,21.69
2019-05-10T10:36:22.968Z,22.01
2019-05-10T10:38:52.454Z,21.96
2019-05-10T10:41:26.024Z,21.92
2019-05-10T10:43:52.805Z,22.35
2019-05-10T10:46:22.068Z,22.25
2019-05-10T10:48:51.637Z,21.72
2019-05-10T10:51:20.924Z,21.19
2019-05-10T10:53:50.401Z,21.62
2019-05-10T10:56:19.690Z,20.99
2019-05-10T10:58:50.106Z,21.23
2019-05-10T11:01:25.176Z,21.19
2019-05-10T11:03:50.741Z,21.27
2019-05-10T11:06:20.010Z,21.76
2019-05-10T11:08:51.658Z,22.38
2019-05-10T11:11:20.476Z,21.51
2019-05-10T11:13:57.805Z,21.96
2019-05-10T11:16:20.854Z,22.47
2019-05-10T11:18:51.950Z,22.54
2019-05-10T11:21:28.778Z,22.80
2019-05-10T11:24:01.257Z,22.58
2019-05-10T11:26:32.789Z,22.89
2019-05-10T11:29:01.358Z,21.25
2019-05-10T11:31:31.266Z,20.79
2019-05-10T11:34:01.517Z,21.85
2019-05-10T11:36:31.394Z,21.82
2019-05-10T11:39:01.653Z,21.71
2019-05-10T11:41:31.606Z,22.11
2019-05-10T11:44:05.245Z,22.47
2019-05-10T11:46:32.371Z,23.75
2019-05-10T11:49:01.981Z,22.44
2019-05-10T11:51:31.795Z,22.81
2019-05-10T11:54:01.185Z,23.42
2019-05-10T11:56:32.250Z,22.86
2019-05-10T11:59:02.759Z,22.52
2019-05-10T12:01:32.317Z,21.97
2019-05-10T12:04:05.008Z,21.54
2019-05-10T12:06:32.848Z,21.04
2019-05-10T12:09:04.672Z,21.15
2019-05-10T12:11:39.640Z,21.44
2019-05-10T12:14:04.363Z,21.11
2019-05-10T12:16:33.820Z,20.81
2019-05-10T12:19:14.843Z,20.93
2019-05-10T12:21:34.453Z,21.33
2019-05-10T12:24:30.784Z,21.94
2019-05-10T12:29:12.063Z,23.50
2019-05-10T12:31:37.030Z,22.90
2019-05-10T12:34:14.246Z,23.74
2019-05-10T12:36:37.527Z,23.87
2019-05-10T12:39:08.289Z,23.77
2019-05-10T12:41:39.951Z,22.82
2019-05-10T12:44:11.052Z,22.52
2019-05-10T12:46:42.267Z,23.29
2019-05-10T12:49:12.110Z,23.59
2019-05-10T12:51:43.248Z,24.40
2019-05-10T12:54:12.539Z,24.49
2019-05-10T12:56:46.218Z,23.65
2019-05-10T12:59:12.852Z,23.27
2019-05-10T13:01:42.222Z,22.93
2019-05-10T13:04:14.634Z,22.51
2019-05-10T13:06:42.619Z,22.27
2019-05-10T13:09:11.864Z,21.87
2019-05-10T13:11:41.220Z,21.62
2019-05-10T13:14:10.639Z,21.31
2019-05-10T13:16:39.991Z,20.98
2019-05-10T13:19:14.301Z,20.90
2019-05-10T13:21:40.460Z,21.62
2019-05-10T13:24:09.760Z,21.45
2019-05-10T13:26:39.261Z,21.34
2019-05-10T13:29:10.532Z,21.30
2019-05-10T13:31:42.619Z,21.05
2019-05-10T13:34:10.894Z,20.93
2019-05-10T13:36:40.297Z,20.64
2019-05-10T13:39:09.728Z,20.20
2019-05-10T13:41:39.132Z,20.04
2019-05-10T13:44:08.546Z,20.09
2019-05-10T13:46:55.867Z,19.72
2019-05-10T13:49:25.189Z,19.82
2019-05-10T13:51:54.561Z,20.68
2019-05-10T13:54:23.914Z,21.66
2019-05-10T13:56:54.995Z,21.78
2019-05-10T13:59:24.147Z,22.23
2019-05-10T14:01:53.499Z,22.00
2019-05-10T14:04:23.311Z,21.99
2019-05-10T14:06:52.842Z,22.12
2019-05-10T14:09:22.202Z,23.10
2019-05-10T14:11:51.587Z,23.10
2019-05-10T14:14:26.091Z,22.81
2019-05-10T14:16:52.115Z,22.24
2019-05-10T14:19:27.543Z,22.20
2019-05-10T14:21:57.723Z,22.64
2019-05-10T14:24:26.996Z,22.86
2019-05-10T14:26:57.116Z,22.87
2019-05-10T14:29:34.767Z,22.62
2019-05-10T14:31:58.367Z,23.65
2019-05-10T14:34:27.661Z,23.54
2019-05-10T14:36:56.956Z,23.94
2019-05-10T14:39:26.349Z,24.53
2019-05-10T14:41:55.846Z,23.77
2019-05-10T14:44:25.158Z,23.09
2019-05-10T14:46:54.497Z,22.56
2019-05-10T14:49:23.877Z,22.07
2019-05-10T14:51:58.952Z,21.55
2019-05-10T14:54:24.220Z,21.22
2019-05-10T14:56:54.206Z,21.38
2019-05-10T14:59:23.733Z,21.42
2019-05-10T15:01:53.162Z,21.36
2019-05-10T15:04:43.787Z,21.53
2019-05-10T15:06:53.702Z,22.28
2019-05-10T15:09:24.178Z,22.89
2019-05-10T15:11:53.666Z,22.90
2019-05-10T15:14:23.054Z,22.97
2019-05-10T15:16:52.521Z,23.32
2019-05-10T15:19:26.295Z,23.64
2019-05-10T15:21:53.043Z,23.30
2019-05-10T15:24:22.474Z,22.45
2019-05-10T15:26:51.697Z,22.37
2019-05-10T15:29:22.210Z,22.11
2019-05-10T15:31:52.034Z,21.60
2019-05-10T15:34:21.316Z,20.88
2019-05-10T15:36:50.717Z,20.39
2019-05-10T15:39:23.167Z,20.36
2019-05-10T15:41:53.677Z,20.71
2019-05-10T15:44:30.264Z,21.07
2019-05-10T15:46:53.733Z,21.72
2019-05-10T15:49:36.215Z,21.67
2019-05-10T15:52:17.433Z,22.20
2019-05-10T15:54:44.128Z,22.17
2019-05-10T15:57:08.691Z,22.39
2019-05-10T15:59:37.956Z,22.77
2019-05-10T16:02:07.583Z,22.33
2019-05-10T16:04:37.072Z,22.40
2019-05-10T16:07:09.286Z,22.48
2019-05-10T16:09:37.502Z,22.02
2019-05-10T16:12:08.697Z,22.09
2019-05-10T16:14:39.246Z,22.46
2019-05-10T16:17:10.529Z,22.36
2019-05-10T16:19:40.153Z,21.88
2019-05-10T16:22:09.527Z,22.46
2019-05-10T16:24:39.837Z,22.62
2019-05-10T16:27:09.217Z,22.37
2019-05-10T16:29:41.399Z,21.97
2019-05-10T16:32:10.929Z,21.87
2019-05-10T16:34:40.353Z,21.68
2019-05-10T16:37:09.800Z,21.23
2019-05-10T16:39:39.104Z,20.97
2019-05-10T16:42:08.498Z,20.75
2019-05-10T16:44:37.854Z,20.53
2019-05-10T16:47:07.264Z,20.36
2019-05-10T16:49:36.666Z,20.16
2019-05-10T16:52:06.030Z,19.92
2019-05-10T16:54:35.315Z,19.76
2019-05-10T16:57:04.813Z,19.86
2019-05-10T16:59:35.260Z,19.84
2019-05-10T17:02:06.563Z,19.79
2019-05-10T17:04:39.394Z,19.68
2019-05-10T17:07:12.807Z,19.74
2019-05-10T17:09:39.116Z,19.84
2019-05-10T17:12:08.492Z,19.98
2019-05-10T17:14:37.922Z,19.82
2019-05-10T17:17:07.306Z,19.79
2019-05-10T17:19:36.657Z,19.56
2019-05-10T17:22:06.033Z,19.39
2019-05-10T17:24:35.541Z,19.47
2019-05-10T17:27:04.924Z,19.28
2019-05-10T17:29:34.295Z,19.18
2019-05-10T17:32:03.685Z,19.00
2019-05-10T17:34:33.044Z,18.90
2019-05-10T17:37:02.424Z,18.81
2019-05-10T17:39:34.023Z,18.71
2019-05-10T17:42:04.655Z,18.64
2019-05-10T17:44:33.980Z,18.53
2019-05-10T17:47:03.316Z,18.46
2019-05-10T17:49:32.670Z,18.39
2019-05-10T17:52:02.031Z,18.30
2019-05-10T17:54:33.593Z,18.19
2019-05-10T17:57:02.632Z,18.13
2019-05-10T17:59:31.906Z,18.07
2019-05-10T18:02:01.299Z,18.01
2019-05-10T18:04:30.788Z,17.94
2019-05-10T18:07:00.360Z,17.85
2019-05-10T18:09:29.763Z,17.75
2019-05-10T18:11:59.732Z,17.71
2019-05-10T18:14:29.731Z,17.67
2019-05-10T18:16:59.338Z,17.65
2019-05-10T18:19:28.699Z,17.58
2019-05-10T18:22:00.841Z,17.51
2019-05-10T18:24:30.126Z,17.43
2019-05-10T18:27:00.152Z,17.40
2019-05-10T18:29:29.592Z,17.35
2019-05-10T18:31:59.049Z,17.30
2019-05-10T18:34:33.391Z,17.28
2019-05-10T18:36:59.361Z,17.24
2019-05-10T18:39:28.750Z,17.22
2019-05-10T18:41:58.108Z,17.20
2019-05-10T18:44:27.482Z,17.14
2019-05-10T18:46:56.757Z,17.13
2019-05-10T18:49:26.191Z,17.10
2019-05-10T18:52:03.552Z,17.09
2019-05-10T18:54:26.694Z,17.03
2019-05-10T18:56:57.063Z,16.96
2019-05-10T18:59:26.427Z,16.95
2019-05-10T19:01:55.881Z,16.90
2019-05-10T19:04:25.082Z,16.82
2019-05-10T19:07:09.258Z,16.73
2019-05-10T19:09:25.802Z,16.61
2019-05-10T19:11:55.285Z,16.55
2019-05-10T19:14:29.547Z,16.49
2019-05-10T19:16:55.752Z,16.40
2019-05-10T19:19:25.065Z,16.37
2019-05-10T19:21:54.376Z,16.26
2019-05-10T19:24:24.266Z,16.21
2019-05-10T19:26:54.861Z,16.10
2019-05-10T19:29:27.459Z,16.01
2019-05-10T19:31:56.199Z,15.94
2019-05-10T19:34:25.796Z,15.86
2019-05-10T19:36:55.088Z,15.81
2019-05-10T19:39:24.592Z,15.93
2019-05-10T19:42:03.060Z,15.88
2019-05-10T19:44:25.110Z,15.86
2019-05-10T19:46:55.503Z,15.86
2019-05-10T19:49:24.863Z,15.87
2019-05-10T19:51:54.443Z,15.85
2019-05-10T19:54:25.217Z,15.81
2019-05-10T19:56:55.347Z,15.83
2019-05-10T19:59:25.141Z,15.77
2019-05-10T20:01:54.654Z,15.69
2019-05-10T20:04:24.096Z,15.59
2019-05-10T20:06:53.471Z,15.52
2019-05-10T20:09:22.962Z,15.48
2019-05-10T20:11:52.332Z,15.43
2019-05-10T20:14:21.810Z,15.39
2019-05-10T20:16:53.229Z,15.31
2019-05-10T20:19:22.347Z,15.23
2019-05-10T20:21:51.792Z,15.18
2019-05-10T20:24:22.053Z,15.14
2019-05-10T20:27:04.033Z,15.13
2019-05-10T20:29:47.536Z,15.10
2019-05-10T20:32:24.056Z,15.04
2019-05-10T20:35:07.183Z,14.98
2019-05-10T20:37:40.708Z,14.94
2019-05-10T20:40:26.480Z,14.85
2019-05-10T20:42:57.149Z,14.79
2019-05-10T20:45:26.593Z,14.73
2019-05-10T20:47:56.034Z,14.71
2019-05-10T20:50:25.391Z,14.67
2019-05-10T20:52:54.786Z,14.57
2019-05-10T20:55:24.307Z,14.54
2019-05-10T20:57:53.652Z,14.49
2019-05-10T21:00:24.107Z,14.41
2019-05-10T21:02:53.850Z,14.36
2019-05-10T21:05:23.235Z,14.35
2019-05-10T21:07:52.868Z,14.25
2019-05-10T21:10:22.316Z,14.18
2019-05-10T21:12:51.705Z,14.11
2019-05-10T21:15:21.084Z,14.03
2019-05-10T21:17:50.793Z,13.99
2019-05-10T21:20:20.183Z,13.97
2019-05-10T21:22:49.578Z,13.94
2019-05-10T21:25:19.104Z,13.95
2019-05-10T21:27:48.578Z,13.93
2019-05-10T21:30:17.956Z,13.88
2019-05-10T21:32:52.122Z,13.84
2019-05-10T21:35:22.198Z,13.84
2019-05-10T21:37:51.564Z,13.79
2019-05-10T21:40:21.005Z,13.79
2019-05-10T21:42:50.373Z,13.81
2019-05-10T21:45:19.699Z,13.79
2019-05-10T21:47:51.499Z,13.79
2019-05-10T21:50:20.152Z,13.74
2019-05-10T21:52:49.834Z,13.73
2019-05-10T21:55:19.260Z,13.71
2019-05-10T21:57:48.567Z,13.65
2019-05-10T22:00:19.970Z,13.61
2019-05-10T22:02:49.493Z,13.59
2019-05-10T22:05:19.056Z,13.54
2019-05-10T22:07:48.466Z,13.48
2019-05-10T22:10:20.121Z,13.44
2019-05-10T22:12:49.509Z,13.42
2019-05-10T22:15:19.060Z,13.36
2019-05-10T22:17:48.496Z,13.33
2019-05-10T22:20:17.870Z,13.27
2019-05-10T22:22:47.552Z,13.26
2019-05-10T22:25:16.935Z,13.23
2019-05-10T22:27:46.472Z,13.21
2019-05-10T22:30:16.885Z,13.21
2019-05-10T22:32:46.199Z,13.19
2019-05-10T22:35:15.576Z,13.20
2019-05-10T22:37:44.967Z,13.20
2019-05-10T22:40:14.343Z,13.19
2019-05-10T22:42:46.629Z,13.20
2019-05-10T22:45:19.138Z,13.18
2019-05-10T22:47:48.497Z,13.17
2019-05-10T22:50:18.095Z,13.17
2019-05-10T22:52:47.580Z,13.15
2019-05-10T22:55:17.251Z,13.10
2019-05-10T22:57:46.476Z,13.06
2019-05-10T23:00:16.874Z,13.06
2019-05-10T23:02:46.276Z,13.04
2019-05-10T23:05:15.643Z,13.02
2019-05-10T23:07:44.996Z,12.98
2019-05-10T23:10:15.167Z,12.99
2019-05-10T23:12:44.964Z,12.99
2019-05-10T23:15:14.637Z,13.00
2019-05-10T23:17:44.119Z,13.00
2019-05-10T23:20:13.705Z,12.99
2019-05-10T23:22:43.136Z,12.97
2019-05-10T23:25:13.355Z,12.90
2019-05-10T23:27:42.901Z,12.94
2019-05-10T23:30:12.658Z,12.94
2019-05-10T23:32:41.939Z,12.92
2019-05-10T23:35:11.342Z,12.91
2019-05-10T23:37:40.719Z,12.91
2019-05-10T23:40:10.788Z,12.90
2019-05-10T23:42:40.201Z,12.85
2019-05-10T23:45:09.983Z,12.82
2019-05-10T23:47:39.278Z,12.81
2019-05-10T23:50:09.081Z,12.81
2019-05-10T23:52:38.465Z,12.81
2019-05-10T23:55:08.625Z,12.81
2019-05-10T23:57:38.021Z,12.82
